Time;durP1;ratioP1;P1;durP2;ratioP2;P2;SDS_P1;SDS_P2;PMS_P1;PMS_P2;Temp;Humidity;BMP_temperature;BMP_pressure;BME280_temperature;BME280_humidity;BME280_pressure;Samples;Min_cycle;Max_cycle;Signal;HPM_P1;HPM_P2
2023/06/14 00:00:23;;;;;;;10.30;5.90;;;16.60;1.00;;;;;;4994412;28;20553;-73
2023/06/14 00:02:55;;;;;;;8.73;5.63;;;16.50;1.00;;;;;;4993957;28;20928;-73
2023/06/14 00:05:23;;;;;;;12.27;5.50;;;16.50;1.00;;;;;;4993088;28;20555;-73
2023/06/14 00:07:49;;;;;;;8.80;5.70;;;16.50;1.00;;;;;;4988581;28;20422;-74
2023/06/14 00:10:15;;;;;;;6.90;5.70;;;16.50;1.00;;;;;;4984850;28;20398;-73
2023/06/14 00:12:41;;;;;;;10.43;6.00;;;16.40;1.00;;;;;;4988055;28;20436;-73
2023/06/14 00:15:11;;;;;;;7.37;5.70;;;16.40;1.00;;;;;;4993888;28;20406;-74
2023/06/14 00:17:38;;;;;;;10.83;5.70;;;16.40;1.00;;;;;;4994066;28;20574;-73
2023/06/14 00:20:11;;;;;;;6.60;5.37;;;16.40;1.00;;;;;;5000395;28;20437;-79
2023/06/14 00:22:55;;;;;;;7.93;5.07;;;16.30;1.00;;;;;;4991590;28;20429;-78
2023/06/14 00:25:47;;;;;;;6.17;5.27;;;16.30;1.00;;;;;;4997599;28;20416;-79
2023/06/14 00:28:34;;;;;;;7.37;5.90;;;16.30;1.00;;;;;;4994063;28;20442;-78
2023/06/14 00:31:17;;;;;;;7.70;6.10;;;16.30;1.00;;;;;;4993739;28;20447;-79
2023/06/14 00:33:53;;;;;;;13.40;6.50;;;16.20;1.00;;;;;;4993863;28;20815;-78
2023/06/14 00:36:29;;;;;;;9.57;5.37;;;16.20;1.00;;;;;;4980836;28;20405;-78
2023/06/14 00:39:16;;;;;;;6.00;5.30;;;16.20;1.00;;;;;;4995785;28;20417;-78
2023/06/14 00:41:47;;;;;;;9.07;5.47;;;16.20;1.00;;;;;;4993761;28;20468;-79
2023/06/14 00:44:17;;;;;;;12.43;5.93;;;16.20;1.00;;;;;;4982040;28;20431;-79
2023/06/14 00:46:45;;;;;;;8.60;5.87;;;16.10;1.00;;;;;;4997638;28;21047;-78
2023/06/14 00:49:35;;;;;;;9.93;5.10;;;16.10;1.00;;;;;;4994043;28;20493;-78
2023/06/14 00:52:24;;;;;;;5.90;5.13;;;16.10;1.00;;;;;;4993542;28;20925;-79
2023/06/14 00:54:53;;;;;;;8.37;5.70;;;16.00;1.00;;;;;;4993891;28;20409;-78
2023/06/14 00:57:29;;;;;;;7.53;5.77;;;16.00;1.00;;;;;;4993735;28;20519;-79
2023/06/14 00:59:59;;;;;;;8.47;5.67;;;15.90;1.00;;;;;;4993727;28;20425;-78
2023/06/14 01:02:29;;;;;;;9.37;5.40;;;15.90;1.00;;;;;;4993709;28;20527;-79
2023/06/14 01:04:56;;;;;;;11.60;5.13;;;15.90;1.00;;;;;;5001924;28;20418;-73
2023/06/14 01:07:42;;;;;;;10.90;5.50;;;15.90;1.00;;;;;;4992369;28;20432;-73
2023/06/14 01:10:28;;;;;;;8.10;5.23;;;15.90;1.00;;;;;;4979233;28;20488;-73
2023/06/14 01:13:03;;;;;;;10.30;5.10;;;15.80;1.00;;;;;;4992323;28;20400;-73
2023/06/14 01:15:31;;;;;;;9.27;5.40;;;15.80;1.00;;;;;;4996796;28;20430;-74
2023/06/14 01:18:02;;;;;;;7.80;6.23;;;15.80;1.00;;;;;;4989593;28;20393;-73
2023/06/14 01:20:32;;;;;;;7.50;5.30;;;15.80;1.00;;;;;;4996925;28;20467;-78
2023/06/14 01:23:17;;;;;;;7.00;5.50;;;15.80;1.00;;;;;;4983567;28;20425;-78
2023/06/14 01:26:22;;;;;;;7.20;5.77;;;15.80;1.00;;;;;;4996593;28;20534;-79
2023/06/14 01:28:58;;;;;;;6.97;5.80;;;15.80;1.00;;;;;;4994073;28;20437;-78
2023/06/14 01:31:39;;;;;;;7.50;5.30;;;15.70;1.00;;;;;;4968033;28;20976;-79
2023/06/14 01:34:05;;;;;;;5.97;4.80;;;15.70;1.00;;;;;;4976583;28;20442;-78
2023/06/14 01:36:40;;;;;;;14.47;5.80;;;15.70;1.00;;;;;;4986084;28;20418;-78
2023/06/14 01:39:15;;;;;;;9.17;5.40;;;15.80;1.00;;;;;;4995772;28;20265;-79
2023/06/14 01:41:53;;;;;;;10.30;6.33;;;15.80;1.00;;;;;;4996750;28;20565;-79
2023/06/14 01:44:31;;;;;;;5.60;4.60;;;15.70;1.00;;;;;;5002173;28;20464;-78
2023/06/14 01:46:59;;;;;;;9.03;5.50;;;15.70;1.00;;;;;;4994885;28;20509;-79
2023/06/14 01:49:45;;;;;;;7.87;5.13;;;15.80;1.00;;;;;;4996323;28;20458;-78
2023/06/14 01:52:19;;;;;;;9.60;5.03;;;17.50;1.00;;;;;;4989659;28;20425;-78
2023/06/14 01:54:53;;;;;;;13.73;5.60;;;15.70;1.00;;;;;;4995692;28;20527;-78
2023/06/14 01:57:24;;;;;;;8.73;5.03;;;15.80;1.00;;;;;;4984400;28;20926;-78
2023/06/14 01:59:59;;;;;;;8.57;5.40;;;15.70;1.00;;;;;;4993849;28;20940;-79
2023/06/14 02:02:29;;;;;;;7.53;4.83;;;15.70;1.00;;;;;;4994652;28;20446;-79
2023/06/14 02:04:57;;;;;;;13.03;5.23;;;15.70;1.00;;;;;;4996304;28;20429;-74
2023/06/14 02:07:23;;;;;;;15.23;5.90;;;15.70;1.00;;;;;;4994068;28;20868;-73
2023/06/14 02:09:48;;;;;;;24.57;5.67;;;15.70;1.00;;;;;;4987102;28;20529;-73
2023/06/14 02:12:14;;;;;;;11.37;5.33;;;15.70;1.00;;;;;;4995533;28;20854;-73
2023/06/14 02:14:40;;;;;;;6.53;4.87;;;15.60;1.00;;;;;;4995200;28;20182;-73
2023/06/14 02:17:06;;;;;;;6.90;5.23;;;15.70;1.00;;;;;;4994389;28;20261;-74
2023/06/14 02:19:32;;;;;;;6.73;4.87;;;15.60;1.00;;;;;;4995191;28;20187;-73
2023/06/14 02:21:57;;;;;;;11.70;5.23;;;15.60;1.00;;;;;;4996398;28;20520;-73
2023/06/14 02:24:29;;;;;;;7.33;5.00;;;15.50;1.00;;;;;;4988130;28;20184;-73
2023/06/14 02:26:55;;;;;;;13.53;5.10;;;15.50;1.00;;;;;;4989440;28;20623;-73
2023/06/14 02:29:21;;;;;;;9.20;5.37;;;15.50;1.00;;;;;;4978467;28;20426;-73
2023/06/14 02:31:48;;;;;;;6.20;4.63;;;15.40;1.00;;;;;;5005740;28;20189;-73
2023/06/14 02:34:16;;;;;;;5.50;4.57;;;15.40;1.00;;;;;;4995966;28;20182;-73
2023/06/14 02:36:45;;;;;;;5.37;4.53;;;15.40;1.00;;;;;;5015468;28;20396;-74
2023/06/14 02:39:11;;;;;;;11.03;4.67;;;15.40;1.00;;;;;;4978189;28;20965;-73
2023/06/14 02:41:41;;;;;;;11.90;5.10;;;15.30;1.00;;;;;;4995526;28;20473;-74
2023/06/14 02:44:07;;;;;;;6.93;4.87;;;15.30;1.00;;;;;;4995319;28;20469;-74
2023/06/14 02:46:33;;;;;;;9.30;5.57;;;15.30;1.00;;;;;;4995715;28;20453;-73
2023/06/14 02:48:59;;;;;;;8.23;4.90;;;15.30;1.00;;;;;;4994294;28;20178;-73
2023/06/14 02:51:25;;;;;;;6.47;5.00;;;15.20;1.00;;;;;;4995720;28;20440;-73
2023/06/14 02:53:51;;;;;;;6.30;5.00;;;15.20;1.00;;;;;;4995157;28;20483;-73
2023/06/14 02:56:23;;;;;;;7.13;4.87;;;15.30;1.00;;;;;;4994207;28;20955;-74
2023/06/14 02:58:48;;;;;;;9.03;4.60;;;15.20;1.00;;;;;;4995512;28;20181;-73
2023/06/14 03:01:14;;;;;;;11.93;5.50;;;15.20;1.00;;;;;;4991646;28;20794;-73
2023/06/14 03:03:40;;;;;;;7.20;5.40;;;15.10;1.00;;;;;;4992152;28;20181;-73
2023/06/14 03:06:30;;;;;;;5.70;4.80;;;15.10;1.00;;;;;;4991203;28;20178;-78
2023/06/14 03:09:00;;;;;;;6.93;4.70;;;15.10;1.00;;;;;;4987821;28;20189;-84
2023/06/14 03:11:29;;;;;;;12.13;4.57;;;15.10;1.00;;;;;;4992915;28;20483;-83
2023/06/14 03:13:59;;;;;;;6.50;4.60;;;15.10;1.00;;;;;;4977906;28;20790;-84
2023/06/14 03:16:29;;;;;;;8.93;4.60;;;15.20;1.00;;;;;;4986330;28;20447;-84
2023/06/14 03:18:59;;;;;;;7.07;4.83;;;15.20;1.00;;;;;;4977711;28;20421;-84
2023/06/14 03:21:30;;;;;;;8.67;4.97;;;15.20;1.00;;;;;;4995102;28;20443;-88
2023/06/14 03:23:59;;;;;;;6.87;4.90;;;15.30;1.00;;;;;;4983065;28;20418;-89
2023/06/14 03:26:28;;;;;;;9.63;4.60;;;15.30;1.00;;;;;;4976983;28;20929;-84
2023/06/14 03:28:59;;;;;;;8.53;4.73;;;;;;;;;;4987619;28;20460;-84
2023/06/14 03:31:27;;;;;;;7.63;4.60;;;;;;;;;;4976436;28;20781;-84
2023/06/14 03:33:53;;;;;;;8.00;4.90;;;;;;;;;;4990830;28;20427;-84
2023/06/14 03:36:19;;;;;;;5.80;4.20;;;;;;;;;;4975745;28;20429;-88
2023/06/14 03:39:28;;;;;;;22.47;4.70;;;15.50;1.00;;;;;;4975210;28;20480;-89
2023/06/14 03:42:11;;;;;;;5.90;4.70;;;;;;;;;;4977519;28;21009;-88
2023/06/14 03:44:41;;;;;;;6.37;4.57;;;;;;;;;;4976460;28;20523;-88
2023/06/14 03:47:08;;;;;;;5.27;3.80;;;15.50;1.00;;;;;;4975921;28;21126;-89
2023/06/14 03:49:47;;;;;;;4.90;4.07;;;;;;;;;;4972135;28;20463;-90
2023/06/14 03:52:53;;;;;;;10.03;4.90;;;15.60;1.00;;;;;;4975369;28;20407;-87
2023/06/14 03:55:19;;;;;;;7.60;4.47;;;;;;;;;;4993594;28;20415;-86
2023/06/14 03:57:46;;;;;;;5.40;4.27;;;;;;;;;;4994892;28;20388;-86
2023/06/14 04:00:12;;;;;;;6.40;4.70;;;;;;;;;;4984177;28;20903;-86
2023/06/14 04:02:47;;;;;;;5.30;4.40;;;;;;;;;;4979122;28;20437;-85
2023/06/14 04:05:16;;;;;;;5.50;4.60;;;;;;;;;;4994408;28;20847;-85
2023/06/14 04:11:58;;;;;;;4.70;4.27;;;15.90;1.00;;;;;;4993419;28;20440;-86
2023/06/14 04:17:46;;;;;;;6.10;4.40;;;15.90;1.00;;;;;;4992446;28;20428;-90
2023/06/14 04:20:17;;;;;;;16.03;5.03;;;15.90;1.00;;;;;;4977404;28;20389;-90
2023/06/14 04:26:05;;;;;;;12.10;4.80;;;15.90;1.00;;;;;;4988529;28;20537;-90
2023/06/14 04:29:14;;;;;;;16.60;5.17;;;16.00;1.00;;;;;;4990797;28;20926;-90
2023/06/14 04:32:18;;;;;;;11.13;4.80;;;16.00;1.00;;;;;;4976989;28;20194;-90
2023/06/14 04:34:44;;;;;;;11.40;4.37;;;16.00;1.00;;;;;;4983958;28;20494;-90
2023/06/14 04:37:11;;;;;;;7.30;4.50;;;16.10;1.00;;;;;;4976767;28;20430;-90
2023/06/14 04:39:58;;;;;;;9.60;4.20;;;16.10;1.00;;;;;;4977553;28;20199;-86
2023/06/14 04:42:54;;;;;;;9.07;4.90;;;16.10;1.00;;;;;;4980020;28;20471;-86
2023/06/14 04:45:47;;;;;;;7.03;4.10;;;16.20;1.00;;;;;;4998238;28;20414;-86
2023/06/14 04:51:57;;;;;;;5.57;4.13;;;16.30;1.00;;;;;;4995298;28;20944;-84
2023/06/14 04:54:31;;;;;;;10.20;4.93;;;16.40;1.00;;;;;;4995740;28;20441;-86
2023/06/14 04:57:29;;;;;;;13.47;4.83;;;16.40;1.00;;;;;;4974867;28;20498;-86
2023/06/14 05:00:04;;;;;;;6.33;4.27;;;16.50;1.00;;;;;;4978053;28;20468;-85
2023/06/14 05:03:23;;;;;;;9.00;4.43;;;16.50;1.00;;;;;;4989483;28;20536;-86
2023/06/14 05:06:00;;;;;;;13.07;4.33;;;16.60;1.00;;;;;;4980940;28;20800;-85
2023/06/14 05:08:59;;;;;;;4.47;4.03;;;16.60;1.00;;;;;;4976263;28;20492;-85
2023/06/14 05:12:00;;;;;;;8.03;4.60;;;16.70;1.00;;;;;;5002071;28;20504;-86
2023/06/14 05:14:59;;;;;;;7.87;4.47;;;16.80;1.00;;;;;;4972403;28;20424;-85
2023/06/14 05:17:55;;;;;;;9.43;4.50;;;16.80;1.00;;;;;;4978604;28;20510;-87
2023/06/14 05:20:30;;;;;;;12.80;4.43;;;16.90;1.00;;;;;;4980138;28;20431;-86
2023/06/14 05:23:29;;;;;;;9.57;4.27;;;17.00;1.00;;;;;;4992889;28;20431;-86
2023/06/14 05:25:54;;;;;;;8.17;4.27;;;17.00;1.00;;;;;;4979639;28;20418;-86
2023/06/14 05:28:30;;;;;;;5.33;4.47;;;17.00;1.00;;;;;;4995586;28;20438;-86
2023/06/14 05:31:29;;;;;;;6.63;4.87;;;17.10;1.00;;;;;;4973423;28;20203;-86
2023/06/14 05:37:24;;;;;;;9.77;5.23;;;;;;;;;;4978046;28;20435;-86
2023/06/14 05:39:59;;;;;;;8.53;4.70;;;;;;;;;;4980794;28;20447;-86
2023/06/14 05:42:47;;;;;;;8.30;4.33;;;17.50;1.00;;;;;;4982181;28;20999;-86
2023/06/14 05:45:59;;;;;;;7.83;5.10;;;17.50;1.00;;;;;;4972703;28;20462;-85
2023/06/14 05:48:47;;;;;;;10.77;4.27;;;17.60;1.00;;;;;;4979809;28;20525;-86
2023/06/14 05:51:20;;;;;;;10.07;4.60;;;17.60;1.00;;;;;;4980360;28;20431;-85
2023/06/14 05:54:29;;;;;;;16.17;4.77;;;17.60;1.00;;;;;;5015287;28;20395;-86
2023/06/14 05:57:06;;;;;;;7.80;4.70;;;17.70;1.00;;;;;;4985997;28;20471;-84
2023/06/14 05:59:59;;;;;;;5.40;4.23;;;17.80;1.00;;;;;;4990848;28;20431;-84
2023/06/14 06:02:29;;;;;;;10.53;4.70;;;17.90;1.00;;;;;;4995935;28;20456;-84
2023/06/14 06:05:29;;;;;;;6.70;4.07;;;18.00;1.00;;;;;;4995036;28;20423;-85
2023/06/14 06:08:00;;;;;;;8.33;4.00;;;18.00;1.00;;;;;;4985031;28;20427;-83
2023/06/14 06:11:00;;;;;;;7.13;4.40;;;18.10;1.00;;;;;;4993505;28;20413;-83
2023/06/14 06:13:47;;;;;;;8.93;4.40;;;18.20;1.00;;;;;;4977820;28;20448;-82
2023/06/14 06:16:59;;;;;;;5.57;4.33;;;18.40;1.00;;;;;;4995667;28;20438;-83
2023/06/14 06:19:59;;;;;;;10.50;4.60;;;18.50;1.00;;;;;;4988889;28;20417;-83
2023/06/14 06:22:29;;;;;;;7.00;4.10;;;18.50;1.00;;;;;;4995955;28;20471;-82
2023/06/14 06:25:25;;;;;;;7.33;4.50;;;18.50;1.00;;;;;;4996293;28;20414;-91
2023/06/14 06:28:29;;;;;;;7.70;4.50;;;18.60;1.00;;;;;;4980844;28;20489;-91
2023/06/14 06:31:12;;;;;;;9.57;4.93;;;18.70;1.00;;;;;;4984927;28;20424;-92
2023/06/14 06:34:29;;;;;;;9.57;4.47;;;18.80;1.00;;;;;;4994720;28;20424;-91
2023/06/14 06:37:00;;;;;;;5.87;4.67;;;18.90;1.00;;;;;;4996614;28;20429;-91
2023/06/14 06:39:32;;;;;;;12.20;4.73;;;18.90;1.00;;;;;;4978500;28;20501;-87
2023/06/14 06:41:59;;;;;;;8.07;4.27;;;19.10;1.00;;;;;;5002442;28;20467;-91
2023/06/14 06:44:59;;;;;;;14.10;4.17;;;19.20;1.00;;;;;;4979045;28;20426;-91
2023/06/14 06:47:25;;;;;;;18.13;3.90;;;19.30;1.00;;;;;;4979313;28;20429;-91
2023/06/14 06:53:29;;;;;;;7.33;4.00;;;19.50;1.00;;;;;;4995619;28;20471;-90
2023/06/14 06:55:55;;;;;;;4.70;4.17;;;19.60;1.00;;;;;;4978445;28;20433;-82
2023/06/14 06:58:29;;;;;;;3.83;3.53;;;19.70;1.00;;;;;;4977792;28;20439;-83
2023/06/14 07:00:59;;;;;;;5.20;4.40;;;19.90;1.00;;;;;;4977083;28;20209;-83
2023/06/14 07:03:47;;;;;;;7.50;4.60;;;20.00;1.00;;;;;;4994967;28;20928;-82
2023/06/14 07:06:27;;;;;;;5.73;3.70;;;20.00;1.00;;;;;;4986234;28;20476;-83
2023/06/14 07:09:01;;;;;;;9.70;3.90;;;20.10;1.00;;;;;;4974193;28;20432;-82
2023/06/14 07:11:29;;;;;;;4.60;4.20;;;20.20;1.00;;;;;;4973303;28;20429;-82
2023/06/14 07:13:59;;;;;;;15.23;3.63;;;20.30;1.00;;;;;;4976849;28;20430;-82
2023/06/14 07:16:59;;;;;;;16.13;4.47;;;20.40;1.00;;;;;;4994606;28;20407;-82
2023/06/14 07:19:47;;;;;;;4.23;3.50;;;20.40;1.00;;;;;;4976719;28;20427;-83
2023/06/14 07:22:23;;;;;;;5.63;3.50;;;20.60;1.00;;;;;;4977381;28;20460;-83
2023/06/14 07:25:23;;;;;;;6.57;3.30;;;20.60;1.00;;;;;;4972188;28;20410;-84
2023/06/14 07:27:59;;;;;;;5.90;3.00;;;20.70;1.00;;;;;;4971443;28;20500;-91
2023/06/14 07:30:30;;;;;;;4.80;3.27;;;20.90;1.00;;;;;;4968186;28;20439;-88
2023/06/14 07:36:17;;;;;;;12.83;2.67;;;21.10;1.00;;;;;;4978959;28;20400;-94
2023/06/14 07:39:17;;;;;;;8.50;3.07;;;21.20;1.00;;;;;;4960627;28;20464;-94
2023/06/14 07:42:17;;;;;;;12.20;3.00;;;21.20;1.00;;;;;;4959729;28;20206;-95
2023/06/14 07:48:18;;;;;;;22.97;2.83;;;21.40;1.00;;;;;;4992861;28;20465;-93
2023/06/14 07:54:07;;;;;;;5.63;2.60;;;21.60;1.00;;;;;;4998166;28;20389;-93
2023/06/14 08:00:01;;;;;;;6.17;2.60;;;21.60;1.00;;;;;;4996340;28;20483;-94
2023/06/14 08:05:49;;;;;;;34.93;3.10;;;21.70;1.00;;;;;;5000894;28;20284;-94
2023/06/14 08:11:37;;;;;;;2.73;2.27;;;22.00;1.00;;;;;;4996619;28;20253;-94
2023/06/14 08:17:25;;;;;;;2.93;2.27;;;;;;;;;;5002374;28;20391;-95
2023/06/14 08:23:13;;;;;;;2.50;2.20;;;22.60;1.00;;;;;;5003772;28;20517;-94
2023/06/14 08:25:54;;;;;;;4.90;2.20;;;22.60;1.00;;;;;;4986555;28;20905;-92
2023/06/14 08:31:53;;;;;;;6.20;2.33;;;22.60;1.00;;;;;;4995345;28;20781;-86
2023/06/14 08:34:19;;;;;;;2.10;2.00;;;22.70;1.00;;;;;;4984051;28;20773;-85
2023/06/14 08:36:47;;;;;;;16.13;2.47;;;22.80;1.00;;;;;;4982205;28;20439;-85
2023/06/14 08:39:15;;;;;;;3.30;2.20;;;22.80;1.00;;;;;;4968993;28;20185;-86
2023/06/14 08:55:30;;;;;;;2.63;1.73;;;23.20;1.00;;;;;;4981939;28;20374;-90
2023/06/14 08:58:14;;;;;;;1.50;1.40;;;23.20;1.00;;;;;;4995549;28;20423;-82
2023/06/14 09:00:42;;;;;;;2.50;2.00;;;23.20;1.00;;;;;;4995567;28;20464;-81
2023/06/14 09:03:13;;;;;;;3.93;1.73;;;23.30;1.00;;;;;;4996311;28;20956;-81
2023/06/14 09:05:54;;;;;;;8.50;2.00;;;23.40;1.00;;;;;;4995475;28;20442;-81
2023/06/14 09:08:36;;;;;;;2.93;2.03;;;23.40;1.00;;;;;;4999929;28;20469;-81
2023/06/14 09:11:06;;;;;;;2.13;1.57;;;23.50;1.00;;;;;;4999776;28;20469;-80
2023/06/14 09:17:17;;;;;;;1.73;1.53;;;24.00;1.00;;;;;;4994706;28;20404;-84
2023/06/14 09:26:30;;;;;;;2.33;1.80;;;24.40;1.00;;;;;;5000838;28;20497;-85
2023/06/14 09:28:56;;;;;;;2.60;1.60;;;24.60;1.00;;;;;;4978474;28;20495;-84
2023/06/14 09:31:24;;;;;;;6.77;2.03;;;24.70;1.00;;;;;;4978350;28;20517;-84
2023/06/14 09:33:56;;;;;;;1.83;1.70;;;24.60;1.00;;;;;;4963300;28;20187;-85
2023/06/14 09:37:11;;;;;;;2.17;1.97;;;24.70;1.00;;;;;;4970386;28;20922;-85
2023/06/14 09:40:17;;;;;;;3.10;1.90;;;24.80;1.00;;;;;;4992634;28;20418;-85
2023/06/14 09:43:18;;;;;;;2.10;1.80;;;24.90;1.00;;;;;;4979403;28;20471;-85
2023/06/14 09:46:11;;;;;;;3.27;1.90;;;24.90;1.00;;;;;;4979442;28;20791;-85
2023/06/14 09:52:41;;;;;;;2.40;2.20;;;25.20;1.00;;;;;;4995809;28;20928;-85
2023/06/14 09:55:47;;;;;;;2.10;1.87;;;25.40;1.00;;;;;;4979306;28;20541;-84
2023/06/14 09:58:28;;;;;;;2.70;2.10;;;25.50;1.00;;;;;;4996181;28;20436;-84
2023/06/14 10:04:54;;;;;;;4.20;2.00;;;25.50;1.00;;;;;;4984626;28;20423;-85
2023/06/14 10:11:17;;;;;;;5.07;2.00;;;25.40;1.00;;;;;;4995420;28;20425;-84
2023/06/14 10:13:43;;;;;;;3.07;2.20;;;25.40;1.00;;;;;;5000514;28;20428;-93
2023/06/14 10:23:28;;;;;;;2.30;1.80;;;25.40;1.00;;;;;;4996073;28;20423;-84
2023/06/14 10:26:00;;;;;;;1.93;1.83;;;25.50;1.00;;;;;;4920249;29;20491;-84
2023/06/14 10:28:55;;;;;;;2.43;2.00;;;25.50;1.00;;;;;;4921028;29;20440;-94
2023/06/14 10:32:05;;;;;;;6.40;2.13;;;25.60;1.00;;;;;;4951516;29;20476;-94
2023/06/14 10:37:53;;;;;;;8.37;2.10;;;25.40;1.00;;;;;;4922027;29;20450;-94
2023/06/14 10:44:30;;;;;;;5.60;2.53;;;25.90;1.00;;;;;;4932939;29;20226;-93
2023/06/14 10:57:24;;;;;;;2.60;2.07;;;27.30;1.00;;;;;;4930298;29;20420;-90
2023/06/14 11:03:43;;;;;;;2.13;2.03;;;26.80;1.00;;;;;;4993306;28;20412;-87
2023/06/14 11:06:31;;;;;;;2.30;2.20;;;26.80;1.00;;;;;;4978192;28;20787;-86
2023/06/14 11:12:27;;;;;;;2.70;2.00;;;26.70;1.00;;;;;;4993409;28;20430;-89
2023/06/14 11:15:44;;;;;;;17.67;3.03;;;26.70;1.00;;;;;;4997639;28;20498;-87
2023/06/14 11:18:13;;;;;;;4.53;1.80;;;26.70;1.00;;;;;;4916887;29;20417;-86
2023/06/14 11:24:54;;;;;;;3.00;1.90;;;26.80;1.00;;;;;;4936231;29;20461;-95
2023/06/14 11:31:15;;;;;;;2.90;2.10;;;27.10;1.00;;;;;;4936239;29;20416;-95
2023/06/14 11:33:56;;;;;;;6.93;2.00;;;27.20;1.00;;;;;;4848696;29;20920;-91
2023/06/14 11:40:18;;;;;;;1.70;1.60;;;27.30;1.00;;;;;;4842285;29;20443;-91
2023/06/14 11:43:24;;;;;;;2.00;1.90;;;27.70;1.00;;;;;;4835346;29;20468;-90
2023/06/14 11:45:54;;;;;;;5.20;1.70;;;28.10;1.00;;;;;;4844656;29;20431;-93
2023/06/14 11:55:54;;;;;;;1.83;1.73;;;29.10;1.00;;;;;;4897612;29;20426;-88
2023/06/14 11:58:26;;;;;;;4.30;2.20;;;28.70;1.00;;;;;;4900521;29;20433;-91
2023/06/14 12:00:53;;;;;;;2.43;1.87;;;28.50;1.00;;;;;;4897239;29;20511;-85
2023/06/14 12:03:24;;;;;;;4.50;1.87;;;28.30;1.00;;;;;;4915181;29;20444;-86
2023/06/14 12:06:10;;;;;;;2.10;1.90;;;28.30;1.00;;;;;;4899216;29;20444;-86
2023/06/14 12:09:10;;;;;;;1.90;1.80;;;28.20;1.00;;;;;;4929131;28;20426;-90
2023/06/14 12:12:15;;;;;;;2.10;1.90;;;28.20;1.00;;;;;;4998901;28;20456;-88
2023/06/14 12:18:54;;;;;;;2.13;1.93;;;28.50;1.00;;;;;;4955059;29;20841;-92
2023/06/14 12:31:43;;;;;;;3.97;2.47;;;28.70;1.00;;;;;;4943970;28;20428;-93
2023/06/14 12:34:26;;;;;;;6.30;2.67;;;28.80;1.00;;;;;;4938784;29;20434;-92
2023/06/14 12:37:12;;;;;;;8.80;3.47;;;28.90;1.00;;;;;;4953876;29;20434;-91
2023/06/14 12:39:55;;;;;;;10.33;2.70;;;28.90;1.00;;;;;;4938327;29;20438;-89
2023/06/14 12:42:54;;;;;;;2.53;2.37;;;29.20;1.00;;;;;;4935290;29;21016;-94
2023/06/14 12:45:20;;;;;;;4.83;2.63;;;29.20;1.00;;;;;;4971813;28;20431;-86
2023/06/14 12:47:55;;;;;;;9.47;2.50;;;29.00;1.00;;;;;;4984149;28;20424;-86
2023/06/14 12:50:24;;;;;;;8.43;2.90;;;28.90;1.00;;;;;;4997871;28;20180;-86
2023/06/14 12:52:50;;;;;;;3.03;2.70;;;29.10;1.00;;;;;;4976601;28;20426;-86
2023/06/14 12:55:19;;;;;;;3.03;2.53;;;29.50;1.00;;;;;;4994151;28;20518;-86
2023/06/14 12:57:49;;;;;;;3.93;2.50;;;29.70;1.00;;;;;;4978081;28;20192;-85
2023/06/14 13:00:29;;;;;;;7.00;2.50;;;29.80;1.00;;;;;;4976909;28;20449;-95
2023/06/14 13:02:55;;;;;;;7.57;2.47;;;29.90;1.00;;;;;;4978826;28;20432;-93
2023/06/14 13:05:54;;;;;;;2.30;2.20;;;30.00;1.00;;;;;;4980639;28;20420;-96
2023/06/14 13:08:31;;;;;;;5.43;2.67;;;30.10;1.00;;;;;;4981131;28;20181;-92
2023/06/14 13:11:12;;;;;;;6.90;2.47;;;30.00;1.00;;;;;;4975123;28;20879;-92
2023/06/14 13:14:00;;;;;;;2.33;2.10;;;30.00;1.00;;;;;;4983266;28;20969;-89
2023/06/14 13:16:55;;;;;;;3.97;2.07;;;29.80;1.00;;;;;;4980953;28;20416;-89
2023/06/14 13:19:54;;;;;;;3.90;2.40;;;29.70;1.00;;;;;;4977806;28;20438;-90
2023/06/14 13:26:18;;;;;;;2.50;2.30;;;30.00;1.00;;;;;;4996811;28;20772;-90
2023/06/14 13:28:44;;;;;;;2.80;2.37;;;30.20;1.00;;;;;;4974715;28;20428;-86
2023/06/14 13:34:32;;;;;;;3.70;2.33;;;30.10;1.00;;;;;;5002243;28;20184;-87
2023/06/14 13:37:36;;;;;;;2.50;2.40;;;29.70;1.00;;;;;;4980724;28;20449;-87
2023/06/14 13:40:07;;;;;;;3.70;2.13;;;29.50;1.00;;;;;;4993365;28;20195;-87
2023/06/14 13:43:00;;;;;;;2.30;2.20;;;29.20;1.00;;;;;;5000320;28;20453;-86
2023/06/14 13:45:42;;;;;;;3.40;2.10;;;29.00;1.00;;;;;;4988582;28;20518;-88
2023/06/14 13:55:18;;;;;;;2.50;2.30;;;29.60;1.00;;;;;;5001877;28;20776;-87
2023/06/14 13:57:49;;;;;;;2.27;2.07;;;30.30;1.00;;;;;;4999310;28;20432;-87
2023/06/14 14:03:42;;;;;;;3.77;1.70;;;30.90;1.00;;;;;;5018939;28;20459;-96
2023/06/14 14:06:46;;;;;;;1.97;1.87;;;30.70;1.00;;;;;;4996359;28;20958;-95
2023/06/14 14:09:24;;;;;;;1.87;1.77;;;30.70;1.00;;;;;;4980211;28;20409;-96
2023/06/14 14:15:14;;;;;;;4.20;2.10;;;29.80;1.00;;;;;;4995838;28;20423;-96
2023/06/14 14:18:05;;;;;;;4.50;1.97;;;29.60;1.00;;;;;;4980020;28;20424;-96
2023/06/14 14:20:40;;;;;;;4.60;2.20;;;29.10;1.00;;;;;;4980025;28;20409;-96
2023/06/14 14:26:28;;;;;;;1.80;1.70;;;29.00;1.00;;;;;;4998575;28;20391;-96
2023/06/14 14:32:15;;;;;;;2.13;1.73;;;29.40;1.00;;;;;;4978822;28;20165;-96
2023/06/14 14:38:35;;;;;;;2.17;1.90;;;30.20;1.00;;;;;;4981887;28;20235;-95
2023/06/14 14:51:42;;;;;;;2.43;2.03;;;29.50;1.00;;;;;;4988424;28;20511;-84
2023/06/14 14:54:30;;;;;;;3.17;2.00;;;29.40;1.00;;;;;;4969353;28;20448;-86
2023/06/14 14:57:00;;;;;;;4.17;2.43;;;29.70;1.00;;;;;;4972319;28;20449;-86
2023/06/14 14:59:31;;;;;;;2.93;1.80;;;30.00;1.00;;;;;;4976775;28;21016;-87
2023/06/14 15:05:48;;;;;;;3.53;2.10;;;29.40;1.00;;;;;;4997486;28;20895;-93
2023/06/14 15:08:36;;;;;;;2.13;1.93;;;31.20;1.00;;;;;;4974927;28;20432;-94
2023/06/14 15:12:10;;;;;;;2.83;1.80;;;32.90;1.00;;;;;;5133797;27;20976;-91
2023/06/14 15:15:27;;;;;;;3.10;1.60;;;35.00;1.00;;;;;;5114540;27;20446;-84
2023/06/14 15:25:29;;;;;;;2.90;1.50;;;37.10;1.00;;;;;;5132024;28;20413;-91
2023/06/14 15:28:12;;;;;;;3.23;1.60;;;38.10;1.00;;;;;;5118935;28;20539;-87
2023/06/14 15:31:06;;;;;;;3.23;1.40;;;39.40;1.00;;;;;;5146927;27;20572;-91
2023/06/14 15:50:22;;;;;;;1.67;1.20;;;45.00;1.00;;;;;;5132504;28;20449;-92
2023/06/14 15:56:10;;;;;;;1.77;1.27;;;;;;;;;;5132568;28;20256;-92
2023/06/14 15:58:36;;;;;;;2.40;1.77;;;41.40;1.00;;;;;;5121178;28;20435;-91
2023/06/14 16:01:12;;;;;;;3.73;1.40;;;41.00;1.00;;;;;;5124685;27;20196;-90
2023/06/14 16:10:23;;;;;;;4.90;1.60;;;37.80;1.00;;;;;;5154483;27;20530;-92
2023/06/14 16:16:48;;;;;;;4.57;1.77;;;36.10;1.00;;;;;;5127627;27;20426;-88
2023/06/14 16:19:25;;;;;;;4.07;2.00;;;34.70;1.00;;;;;;5126860;27;20829;-82
2023/06/14 16:21:50;;;;;;;3.87;1.83;;;34.40;1.00;;;;;;5113151;27;20792;-82
2023/06/14 16:24:24;;;;;;;1.70;1.60;;;33.90;1.00;;;;;;5098812;27;20532;-82
2023/06/14 16:27:02;;;;;;;14.20;2.53;;;34.00;1.00;;;;;;5107117;28;20556;-82
2023/06/14 16:29:36;;;;;;;3.63;1.83;;;35.70;1.00;;;;;;5111887;28;20465;-83
2023/06/14 16:32:13;;;;;;;19.43;2.40;;;37.70;1.00;;;;;;5095353;28;20822;-86
2023/06/14 16:34:48;;;;;;;6.03;2.10;;;39.60;1.00;;;;;;5116723;28;20434;-84
2023/06/14 16:37:17;;;;;;;2.90;1.60;;;40.80;1.00;;;;;;5116896;27;20502;-86
2023/06/14 16:39:48;;;;;;;1.60;1.50;;;41.10;1.00;;;;;;5107703;28;20430;-86
2023/06/14 16:42:16;;;;;;;1.50;1.40;;;40.80;1.00;;;;;;5114554;28;20420;-86
2023/06/14 16:44:43;;;;;;;1.73;1.63;;;41.60;1.00;;;;;;5116262;27;20505;-86
2023/06/14 16:47:12;;;;;;;2.63;1.67;;;42.20;1.00;;;;;;5105710;27;20435;-86
2023/06/14 16:49:43;;;;;;;1.57;1.40;;;42.40;1.00;;;;;;5106605;28;20486;-92
2023/06/14 16:55:31;;;;;;;1.67;1.57;;;41.30;1.00;;;;;;5118324;28;20439;-94
2023/06/14 16:58:22;;;;;;;1.70;1.60;;;39.80;1.00;;;;;;5101410;28;20432;-94
2023/06/14 17:01:06;;;;;;;3.47;1.53;;;38.10;1.00;;;;;;5082439;28;20464;-93
2023/06/14 17:03:49;;;;;;;1.97;1.37;;;36.70;1.00;;;;;;5108763;27;20415;-85
2023/06/14 17:06:31;;;;;;;2.83;1.80;;;36.10;1.00;;;;;;5102484;27;20430;-85
2023/06/14 17:08:56;;;;;;;2.00;1.90;;;36.90;1.00;;;;;;5117372;27;20435;-86
2023/06/14 17:11:22;;;;;;;4.20;1.40;;;38.00;1.00;;;;;;5120173;27;20902;-86
2023/06/14 17:13:49;;;;;;;5.00;1.57;;;39.10;1.00;;;;;;5102128;28;20189;-87
2023/06/14 17:16:14;;;;;;;1.83;1.43;;;39.80;1.00;;;;;;5111295;27;20442;-87
2023/06/14 17:18:41;;;;;;;1.80;1.70;;;40.90;1.00;;;;;;5107597;28;20432;-87
2023/06/14 17:21:06;;;;;;;1.50;1.40;;;41.70;1.00;;;;;;5099181;28;20712;-89
2023/06/14 17:23:34;;;;;;;1.60;1.60;;;42.40;1.00;;;;;;5099120;27;20515;-86
2023/06/14 17:25:59;;;;;;;2.90;1.30;;;43.10;1.00;;;;;;5128291;27;20208;-85
2023/06/14 17:28:25;;;;;;;12.17;1.73;;;43.60;1.00;;;;;;5120482;27;20482;-85
2023/06/14 17:30:51;;;;;;;2.40;1.23;;;44.20;1.00;;;;;;5130293;27;20209;-85
2023/06/14 17:33:17;;;;;;;5.13;1.30;;;44.90;1.00;;;;;;5116436;27;20189;-86
2023/06/14 17:35:43;;;;;;;5.23;1.53;;;45.30;1.00;;;;;;5124461;27;20185;-86
2023/06/14 17:38:11;;;;;;;1.60;1.50;;;45.20;1.00;;;;;;5128913;27;20440;-85
2023/06/14 17:44:55;;;;;;;4.57;2.07;;;43.20;1.00;;;;;;5096572;28;20380;-96
2023/06/14 17:47:21;;;;;;;2.80;1.53;;;41.10;1.00;;;;;;5096305;28;20408;-81
2023/06/14 17:50:06;;;;;;;1.90;1.80;;;38.80;1.00;;;;;;5090335;27;20457;-90
2023/06/14 17:59:16;;;;;;;2.70;2.20;;;33.70;1.00;;;;;;5118937;27;20958;-90
2023/06/14 18:05:05;;;;;;;2.10;2.00;;;31.70;1.00;;;;;;5107355;27;20200;-83
2023/06/14 18:07:31;;;;;;;2.23;2.13;;;30.60;1.00;;;;;;5115283;27;20419;-84